EDDEETNL

Guest
Details From EDDE - Erfurt
To ETNL - Laage
Flight Number -
Tags Generated
Created
Modified
Stats Distance 183 nm / 339 km
Max Altitude 0 ft / 0 m
Waypoints 2
Social Downloads 1
Likes 0
Share VATSIM

Download

Looking for another format? Having issues loading an existing format? Contact us
Advertisement - Login to hide

Notes

Generated

Route

EDDE ETNL

ID Type Via Altitude Latitude Longitude Leg Dist Tot Dist Heading (true) Name
O EDDE APT - 0 ft / 0 m 50.98148˚ 10.93975˚ - 0 nm - -
O ETNL APT - 0 ft / 0 m 53.91967˚ 12.26033˚ 182 nm 182 nm 15° / 16° -

Altitude Profile

Advertisement - Login to hide

Weather


0- 5 10 15 20 25 30 35+ Temperature / ° C

Clouds and Precipitation
Forecast for 2018-05-27 00:00 UTC. Updated 5 hours ago

Ground ~20,000 ft ~40,000 ft Winds

EDDE

Details ICAO EDDE (ERF)
Name Erfurt
Region Germany - Civil
Timezone Europe/Berlin (UTC+2.0)
Stats Elevation 1,035 ft / 315 m (AMSL)
Location 50.979808° 10.958105°
Runways 1
Magnetic Variation 3.084° E

METAR

EDDE 270420Z VRB02KT CAVOK 15/11 Q1020 NOSIG

Decode

TAF

TAF EDDE 262300Z 2700/2724 07004KT CAVOK

Decode

Departure Runways

ID Width Length Bearing (true) Bearing (mag) Surface Threshold Offset Overrun Length
10 164 ft / 50 m 8,523 ft / 2,598 m 98.24° 95.16° Asphalt 0 ft / 0 m 0 ft / 0 m
28 164 ft / 50 m 8,523 ft / 2,598 m 278.27° 275.19° Asphalt 656 ft / 200 m 0 ft / 0 m

ETNL

Details ICAO ETNL (RLG)
Name Laage
Region Germany - Military
Timezone Europe/Berlin (UTC+2.0)
Stats Elevation 138 ft / 42 m (AMSL)
Location 53.918084° 12.279250°
Runways 1
Magnetic Variation 3.581° E

METAR

ETNL 270320Z 07004KT 3000 BR OVC002 13/13 Q1023 AMB

Decode

TAF

Not found

Destination Runways

ID Width Length Bearing (true) Bearing (mag) Surface Threshold Offset Overrun Length
10 148 ft / 45 m 8,213 ft / 2,503 m 98.07° 94.49° Concrete 0 ft / 0 m 1,001 ft / 305 m
28 148 ft / 45 m 8,213 ft / 2,503 m 278.10° 274.52° Concrete 0 ft / 0 m 1,001 ft / 305 m

Approach Navaids

Runway Type Ident Frequency Range Bearing (true) Bearing (mag) Slope Elevation
10 Localiser ILAE 108.55 MHz 18 nm / 33 km 97.79° 94.21° - 128 ft / 39 m (AMSL)
10 Glidescope ILAE 108.55 MHz 10 nm / 19 km 98.09° 94.51° 3.00° 186 ft / 57 m (AMSL)
28 Localiser ILAW 108.30 MHz 18 nm / 33 km 277.98° 274.40° - 157 ft / 48 m (AMSL)
28 Glidescope ILAW 108.30 MHz 10 nm / 19 km 278.09° 274.51° 3.00° 159 ft / 48 m (AMSL)